CheckWX is a tool to help pilots better visualize weather data.  It is not intended as a substitute for an official pre-flight weather briefing.

14:12:51 UTC

KTEB METAR
Teterboro Airport
Teterboro, New Jersey, USA
Current

22 mins ago

KTEB 311351Z 07006KT 10SM OVC019 06/02 A3006 RMK AO2 SLP179 T00560017
Observed
Mar-31 @ 13:51 UTC
Wind
  • 070° at 6 KTS
Visibility
10 SM
Flight Rules
MVFR
Cloud Levels
  • Overcast at 1,900' AGL
Temperature
C / 43°F
Dewpoint
C / 36°F
Humidity
76%
Altimeter
30.06" Hg
Pressure
1017.92 hPa
Previous

1 hour ago

KTEB 311251Z VRB04KT 10SM OVC017 05/02 A3005 RMK AO2 SLP176 T00500017
Observed
Mar-31 @ 12:51 UTC
Wind
  • Variable at 4 KTS
Visibility
10 SM
Flight Rules
MVFR
Cloud Levels
  • Overcast at 1,700' AGL
Temperature
C / 41°F
Dewpoint
C / 36°F
Humidity
81%
Altimeter
30.05" Hg
Pressure
1017.62 hPa
Previous

2 hours ago

KTEB 311213Z 06008KT 10SM BKN017 OVC022 04/02 A3005 RMK AO2 T00440022
Observed
Mar-31 @ 12:13 UTC
Wind
  • 060° at 8 KTS
Visibility
10 SM
Flight Rules
MVFR
Cloud Levels
  • Broken at 1,700' AGL
  • Overcast at 2,200' AGL
Temperature
C / 39°F
Dewpoint
C / 36°F
Humidity
87%
Altimeter
30.05" Hg
Pressure
1017.62 hPa